Time;durP1;ratioP1;P1;durP2;ratioP2;P2;SDS_P1;SDS_P2;PMS_P1;PMS_P2;Temp;Humidity;BMP_temperature;BMP_pressure;BME280_temperature;BME280_humidity;BME280_pressure;Samples;Min_cycle;Max_cycle;Signal;HPM_P1;HPM_P2
2022/04/28 00:00:35;;;;;;;9.88;5.07;;;;;;;9.70;55.08;102780.84;4991160;28;20121;-87
2022/04/28 00:03:00;;;;;;;7.70;4.60;;;;;;;9.53;55.28;102765.06;4971957;28;20053;-87
2022/04/28 00:05:26;;;;;;;10.00;4.70;;;;;;;9.49;55.75;102767.72;4995510;28;20010;-87
2022/04/28 00:07:52;;;;;;;11.32;4.78;;;;;;;9.42;55.80;102769.53;4994595;28;20044;-87
2022/04/28 00:10:18;;;;;;;9.07;4.55;;;;;;;9.38;56.37;102773.94;4972847;28;20585;-87
2022/04/28 00:12:44;;;;;;;8.45;4.97;;;;;;;9.25;56.45;102759.03;4974115;28;20125;-88
2022/04/28 00:15:10;;;;;;;8.90;5.10;;;;;;;9.32;57.03;102787.16;4991711;28;20041;-87
2022/04/28 00:17:36;;;;;;;12.02;4.97;;;;;;;9.34;56.42;102795.09;4991522;28;20026;-87
2022/04/28 00:20:01;;;;;;;6.82;5.30;;;;;;;9.29;57.73;102784.53;4972011;28;20042;-86
2022/04/28 00:22:27;;;;;;;9.20;4.97;;;;;;;9.19;56.83;102774.91;4972879;28;20042;-87
2022/04/28 00:24:52;;;;;;;14.02;5.22;;;;;;;9.08;57.28;102790.75;4990178;28;20034;-87
2022/04/28 00:27:18;;;;;;;9.23;4.55;;;;;;;9.00;57.60;102779.34;4993821;28;21299;-88
2022/04/28 00:29:44;;;;;;;9.45;4.90;;;;;;;9.02;58.13;102793.41;4988312;28;20036;-87
2022/04/28 00:32:10;;;;;;;8.38;4.47;;;;;;;8.81;58.64;102767.06;4971975;28;20393;-86
2022/04/28 00:34:35;;;;;;;12.20;4.80;;;;;;;8.87;57.96;102798.72;4971613;28;20073;-87
2022/04/28 00:37:01;;;;;;;8.73;4.68;;;;;;;8.86;57.73;102789.03;4975119;28;20453;-87
2022/04/28 00:39:26;;;;;;;8.52;4.57;;;;;;;8.90;57.90;102786.38;4972853;28;20030;-86
2022/04/28 00:41:51;;;;;;;7.38;4.90;;;;;;;8.87;58.08;102775.00;4993007;28;20022;-89
2022/04/28 00:44:17;;;;;;;9.73;5.03;;;;;;;8.83;57.41;102767.97;4990723;28;20104;-86
2022/04/28 00:46:43;;;;;;;8.50;4.70;;;;;;;8.84;57.63;102774.97;4974945;28;20033;-86
2022/04/28 00:51:54;;;;;;;13.77;5.15;;;;;;;8.74;58.48;102779.41;4993005;28;20129;-86
2022/04/28 00:54:21;;;;;;;9.50;4.70;;;;;;;8.69;58.36;102781.16;4971317;28;20096;-87
2022/04/28 00:56:46;;;;;;;8.43;4.68;;;;;;;8.62;58.43;102766.22;4989651;28;20237;-86
2022/04/28 00:59:12;;;;;;;7.82;4.85;;;;;;;8.63;58.05;102765.34;4978487;28;20034;-86
2022/04/28 01:01:38;;;;;;;11.73;5.32;;;;;;;8.51;59.11;102755.69;4993717;28;20461;-87
2022/04/28 01:04:04;;;;;;;10.55;4.90;;;;;;;8.54;58.53;102774.16;4979638;28;20033;-86
2022/04/28 01:06:29;;;;;;;10.63;4.70;;;;;;;8.54;58.62;102768.88;4999372;28;20073;-87
2022/04/28 01:08:58;;;;;;;10.18;5.63;;;;;;;8.45;58.67;102771.53;4982377;28;20042;-87
2022/04/28 01:11:26;;;;;;;9.27;5.63;;;;;;;8.31;58.78;102744.25;4979179;28;20045;-87
2022/04/28 01:13:51;;;;;;;8.82;4.97;;;;;;;8.31;59.56;102774.13;4978149;28;20525;-86
2022/04/28 01:16:16;;;;;;;10.32;5.32;;;;;;;8.21;62.73;102766.19;4980825;28;20022;-87
2022/04/28 01:18:42;;;;;;;8.40;4.90;;;;;;;8.17;60.31;102760.94;4997479;28;20044;-87
2022/04/28 01:21:08;;;;;;;10.15;5.80;;;;;;;8.15;62.44;102773.22;4995444;28;20117;-87
2022/04/28 01:23:35;;;;;;;13.35;5.32;;;;;;;8.15;59.86;102782.88;4997823;28;20038;-89
2022/04/28 01:26:01;;;;;;;14.30;6.20;;;;;;;8.07;59.85;102768.84;4979706;28;20395;-88
2022/04/28 01:28:27;;;;;;;9.93;5.65;;;;;;;8.18;60.06;102786.41;4980182;28;20030;-86
2022/04/28 01:30:53;;;;;;;11.10;5.93;;;;;;;8.17;60.22;102783.78;4992691;28;20559;-86
2022/04/28 01:33:18;;;;;;;10.50;5.57;;;;;;;8.11;60.11;102774.13;4994014;28;20031;-87
2022/04/28 01:35:44;;;;;;;11.73;5.25;;;;;;;8.10;60.17;102774.97;4996268;28;20107;-86
2022/04/28 01:38:09;;;;;;;9.55;5.30;;;;;;;7.94;60.00;102749.50;4985003;28;20405;-86
2022/04/28 01:40:34;;;;;;;9.75;5.40;;;;;;;8.15;60.20;102780.25;4996453;28;20030;-87
2022/04/28 01:43:00;;;;;;;7.57;5.35;;;;;;;8.09;60.19;102780.25;4976499;28;20533;-87
2022/04/28 01:45:25;;;;;;;11.50;5.88;;;;;;;8.09;60.22;102786.38;4996402;28;20034;-87
2022/04/28 01:47:51;;;;;;;9.68;5.38;;;;;;;7.96;60.68;102770.56;4997874;28;20049;-88
2022/04/28 01:50:16;;;;;;;10.35;5.80;;;;;;;7.82;60.87;102760.00;4992423;28;20043;-87
2022/04/28 01:55:25;;;;;;;10.55;5.43;;;;;;;7.84;60.62;102766.16;4997511;28;20057;-86
2022/04/28 01:57:51;;;;;;;14.77;5.75;;;;;;;7.85;60.71;102765.28;4979885;28;20121;-86
2022/04/28 02:00:16;;;;;;;11.20;5.80;;;;;;;7.97;60.63;102786.34;4976169;28;20041;-86
2022/04/28 02:02:43;;;;;;;9.85;5.57;;;;;;;7.96;60.69;102778.47;4997546;28;20033;-87
2022/04/28 02:05:10;;;;;;;13.55;6.15;;;;;;;7.91;60.66;102781.09;4997333;28;20096;-87
2022/04/28 02:07:35;;;;;;;9.32;5.57;;;;;;;7.77;61.37;102765.25;5004084;28;20128;-86
2022/04/28 02:10:02;;;;;;;11.73;6.75;;;;;;;7.76;60.64;102778.44;4990694;28;20064;-86
2022/04/28 02:12:27;;;;;;;10.95;6.20;;;;;;;7.57;61.40;102757.31;4976139;28;20516;-88
2022/04/28 02:14:53;;;;;;;14.13;6.05;;;;;;;7.71;61.17;102785.44;4978344;28;20133;-86
2022/04/28 02:17:20;;;;;;;10.00;6.13;;;;;;;7.47;61.12;102758.16;4995523;28;20087;-87
2022/04/28 02:19:46;;;;;;;10.88;5.38;;;;;;;7.44;61.71;102768.66;4977842;28;20389;-87
2022/04/28 02:22:11;;;;;;;14.90;5.80;;;;;;;7.35;61.75;102768.63;4993847;28;20112;-86
2022/04/28 02:24:37;;;;;;;13.77;6.07;;;;;;;7.30;62.52;102784.41;4988693;28;20079;-88
2022/04/28 02:27:02;;;;;;;10.23;5.85;;;;;;;7.31;63.26;102788.78;4977687;28;20441;-86
2022/04/28 02:29:28;;;;;;;10.32;6.03;;;;;;;7.23;62.56;102777.38;4992197;28;20092;-88
2022/04/28 02:31:53;;;;;;;10.65;5.70;;;;;;;7.29;62.12;102787.91;4994269;28;20520;-86
2022/04/28 02:34:19;;;;;;;11.88;6.18;;;;;;;7.30;62.44;102789.66;4991801;28;20140;-86
2022/04/28 02:36:44;;;;;;;9.80;5.55;;;;;;;7.29;62.97;102790.53;4992966;28;20029;-87
2022/04/28 02:39:10;;;;;;;9.93;5.68;;;;;;;7.24;64.00;102776.50;4990899;28;20029;-87
2022/04/28 02:41:36;;;;;;;12.05;6.05;;;;;;;7.21;62.53;102773.84;4989888;28;20038;-88
2022/04/28 02:44:02;;;;;;;9.65;6.05;;;;;;;7.16;62.57;102765.03;4992124;28;20488;-87
2022/04/28 02:46:29;;;;;;;11.70;6.07;;;;;;;7.15;62.65;102774.69;4992956;28;20034;-87
2022/04/28 02:48:54;;;;;;;14.27;7.00;;;;;;;7.12;63.39;102779.03;4994524;28;20120;-86
2022/04/28 02:51:19;;;;;;;10.45;6.72;;;;;;;7.07;63.26;102775.50;4974233;28;20553;-87
2022/04/28 02:53:45;;;;;;;18.13;6.65;;;;;;;6.95;63.81;102771.09;4994213;28;20037;-87
2022/04/28 02:56:10;;;;;;;16.00;6.43;;;;;;;6.93;63.24;102759.66;4976026;28;20038;-86
2022/04/28 02:58:36;;;;;;;12.70;6.43;;;;;;;7.09;63.00;102779.03;4992134;28;20033;-86
2022/04/28 03:01:01;;;;;;;16.25;6.63;;;;;;;6.94;63.19;102750.00;4991246;28;20409;-87
2022/04/28 03:03:27;;;;;;;10.82;6.50;;;;;;;7.14;62.62;102780.81;4979264;28;20083;-87
2022/04/28 03:11:20;;;;;;;15.88;6.50;;;;;;;6.94;63.67;102779.81;4989614;28;20202;-86
2022/04/28 03:13:46;;;;;;;16.60;6.43;;;;;;;6.86;63.37;102771.91;4974282;28;20034;-88
2022/04/28 03:16:11;;;;;;;9.95;6.07;;;;;;;6.85;64.19;102771.88;4975695;28;20117;-88
2022/04/28 03:18:37;;;;;;;10.50;6.90;;;;;;;6.82;63.49;102774.50;4974964;28;20484;-87
2022/04/28 03:21:05;;;;;;;12.55;6.72;;;;;;;6.83;63.67;102779.75;4992101;28;20026;-86
2022/04/28 03:23:30;;;;;;;12.60;6.13;;;;;;;6.74;63.32;102774.44;4976896;28;20029;-87
2022/04/28 03:25:55;;;;;;;9.77;5.93;;;;;;;6.67;64.60;102785.78;4991393;28;20044;-87
2022/04/28 03:28:22;;;;;;;11.50;6.55;;;;;;;6.45;65.00;102773.34;4971547;28;20076;-87
2022/04/28 03:30:48;;;;;;;13.90;7.05;;;;;;;6.49;66.99;102776.00;4988421;28;20037;-87
2022/04/28 03:33:15;;;;;;;13.77;7.15;;;;;;;6.45;68.04;102765.47;4972575;28;20466;-87
2022/04/28 03:35:41;;;;;;;13.77;7.40;;;;;;;6.49;68.57;102776.00;4976670;28;20029;-89
2022/04/28 03:38:09;;;;;;;11.45;6.95;;;;;;;6.45;65.87;102773.34;4993295;28;20041;-87
2022/04/28 03:40:35;;;;;;;17.65;7.18;;;;;;;6.49;64.82;102780.41;4987599;28;20057;-86
2022/04/28 03:43:00;;;;;;;13.18;7.28;;;;;;;6.50;64.46;102783.03;4974086;28;20765;-86
2022/04/28 03:45:26;;;;;;;14.35;6.68;;;;;;;6.38;65.08;102767.16;4971944;28;20034;-87
2022/04/28 03:47:51;;;;;;;14.82;6.97;;;;;;;6.34;64.68;102761.03;4994916;28;20068;-86
2022/04/28 03:50:17;;;;;;;12.43;7.47;;;;;;;6.38;65.76;102793.41;4994459;28;20030;-87
2022/04/28 03:52:42;;;;;;;10.25;6.75;;;;;;;6.20;66.07;102785.38;4991976;28;20041;-88
2022/04/28 03:55:09;;;;;;;10.40;6.75;;;;;;;6.11;68.14;102773.94;4972486;28;20022;-87
2022/04/28 03:57:35;;;;;;;13.68;7.40;;;;;;;6.20;69.25;102783.66;4972443;28;20026;-87
2022/04/28 04:00:01;;;;;;;12.07;6.63;;;;;;;6.25;67.66;102788.91;4972004;28;20038;-86
2022/04/28 04:02:26;;;;;;;13.50;7.32;;;;;;;6.14;65.95;102783.56;4972811;28;20033;-87
2022/04/28 04:04:51;;;;;;;13.80;8.10;;;;;;;6.14;65.84;102789.72;4976872;28;20529;-86
2022/04/28 04:07:17;;;;;;;13.32;7.47;;;;;;;6.04;65.58;102777.38;4993315;28;20037;-87
2022/04/28 04:09:42;;;;;;;14.30;6.95;;;;;;;6.16;65.78;102791.50;4973167;28;20436;-86
2022/04/28 04:12:08;;;;;;;14.85;7.97;;;;;;;6.13;66.52;102787.97;4969415;28;20248;-86
2022/04/28 04:14:34;;;;;;;14.73;7.55;;;;;;;6.12;66.03;102796.72;4969658;28;20466;-86
2022/04/28 04:16:59;;;;;;;16.27;7.18;;;;;;;6.05;66.30;102776.50;4993560;28;20033;-87
2022/04/28 04:19:24;;;;;;;17.55;7.70;;;;;;;6.11;66.15;102789.69;4976657;28;20458;-87
2022/04/28 04:21:49;;;;;;;14.07;7.38;;;;;;;6.11;66.53;102779.19;4972178;28;20042;-88
2022/04/28 04:24:15;;;;;;;12.13;6.82;;;;;;;6.26;67.10;102803.84;4991568;28;20516;-89
2022/04/28 04:26:41;;;;;;;11.85;6.70;;;;;;;6.23;66.71;102786.28;4974118;28;20029;-88
2022/04/28 04:29:06;;;;;;;12.30;7.25;;;;;;;6.19;68.47;102792.38;4992066;28;20034;-86
2022/04/28 04:34:15;;;;;;;14.27;7.35;;;;;;;6.17;69.48;102809.00;4988532;28;20052;-88
2022/04/28 04:36:41;;;;;;;13.40;8.43;;;;;;;6.07;68.70;102790.53;4994217;28;20485;-86
2022/04/28 04:39:06;;;;;;;15.63;7.47;;;;;;;6.16;67.42;102808.13;4994107;28;20038;-88
2022/04/28 04:41:31;;;;;;;15.15;7.45;;;;;;;6.16;66.70;102802.00;4990688;28;20524;-88
2022/04/28 04:43:57;;;;;;;17.45;7.78;;;;;;;6.13;66.11;102802.84;4989040;28;20048;-87
2022/04/28 04:46:22;;;;;;;16.10;7.53;;;;;;;6.18;66.18;102806.38;4994549;28;20032;-87
2022/04/28 04:48:48;;;;;;;16.70;7.55;;;;;;;6.29;66.20;102816.97;4973419;28;20477;-88
2022/04/28 04:51:14;;;;;;;14.68;7.28;;;;;;;6.20;66.54;102801.13;4991344;28;20112;-87
2022/04/28 04:53:39;;;;;;;15.13;7.80;;;;;;;6.24;66.11;102802.94;4988964;28;20296;-87
2022/04/28 04:56:05;;;;;;;14.35;8.15;;;;;;;6.30;66.20;102809.13;4973715;28;20750;-87
2022/04/28 04:58:30;;;;;;;15.77;7.57;;;;;;;6.43;66.59;102823.25;4988610;28;20302;-87
2022/04/28 05:00:56;;;;;;;16.35;8.95;;;;;;;6.33;66.27;102805.63;4972278;28;20456;-88
2022/04/28 05:03:21;;;;;;;14.63;7.97;;;;;;;6.45;66.20;102823.28;4990000;28;20516;-87
2022/04/28 05:05:46;;;;;;;18.23;8.50;;;;;;;6.54;66.30;102842.63;4971360;28;20041;-86
2022/04/28 05:08:14;;;;;;;16.20;7.22;;;;;;;6.34;66.75;102824.06;4972019;28;20038;-91
2022/04/28 05:10:40;;;;;;;15.73;7.97;;;;;;;6.23;67.52;102830.06;4991383;28;20581;-88
2022/04/28 05:13:05;;;;;;;13.15;7.70;;;;;;;6.20;67.70;102841.44;4983597;28;20036;-87
2022/04/28 05:15:30;;;;;;;16.45;7.70;;;;;;;6.19;68.04;102844.91;4971194;28;20396;-87
2022/04/28 05:17:56;;;;;;;14.50;8.25;;;;;;;6.27;67.89;102845.88;4990883;28;20038;-87
2022/04/28 05:20:21;;;;;;;16.48;9.27;;;;;;;6.28;67.55;102841.50;4992286;28;20033;-87
2022/04/28 05:22:47;;;;;;;12.63;7.85;;;;;;;6.37;67.27;102839.84;4992543;28;20405;-87
2022/04/28 05:25:12;;;;;;;15.60;7.97;;;;;;;6.49;67.69;102849.59;4988769;28;20425;-87
2022/04/28 05:27:38;;;;;;;15.25;8.25;;;;;;;6.58;68.82;102854.06;4972037;28;20034;-87
2022/04/28 05:30:04;;;;;;;15.07;8.85;;;;;;;6.63;67.97;102845.34;4974028;28;20448;-88
2022/04/28 05:32:29;;;;;;;21.63;8.38;;;;;;;6.73;67.79;102840.16;4989250;28;20522;-87
2022/04/28 05:34:54;;;;;;;18.40;8.82;;;;;;;6.81;67.58;102847.22;4988246;28;20026;-89
2022/04/28 05:37:20;;;;;;;19.08;8.10;;;;;;;6.83;67.75;102839.34;4991694;28;20540;-87
2022/04/28 05:39:45;;;;;;;17.08;8.80;;;;;;;7.04;66.85;102862.28;4977392;28;20033;-90
2022/04/28 05:42:11;;;;;;;21.65;9.80;;;;;;;7.11;66.79;102861.47;4987376;28;20026;-87
2022/04/28 05:47:20;;;;;;;24.20;10.13;;;;;;;7.29;67.75;102863.31;4995423;28;20169;-88
2022/04/28 05:49:46;;;;;;;18.90;9.18;;;;;;;7.33;66.97;102878.25;4978795;28;20109;-87
2022/04/28 05:52:11;;;;;;;15.45;9.82;;;;;;;7.33;66.75;102863.34;4992088;28;20074;-87
2022/04/28 05:54:37;;;;;;;19.48;10.13;;;;;;;7.42;66.88;102875.69;4996147;28;20117;-86
2022/04/28 05:57:03;;;;;;;16.33;9.52;;;;;;;7.46;66.74;102871.31;4994293;28;20060;-88
2022/04/28 05:59:28;;;;;;;20.13;9.63;;;;;;;7.65;66.44;102895.13;4975429;28;20116;-87
2022/04/28 06:01:54;;;;;;;18.55;10.20;;;;;;;7.63;66.77;102882.81;4974609;28;20552;-87
2022/04/28 06:04:19;;;;;;;16.98;9.57;;;;;;;7.67;66.19;102884.56;4994230;28;20458;-89
2022/04/28 06:06:45;;;;;;;18.35;9.30;;;;;;;7.74;66.25;102885.47;4995884;28;20057;-87
2022/04/28 06:09:10;;;;;;;25.05;10.40;;;;;;;7.76;66.30;102886.38;4977509;28;20602;-88
2022/04/28 06:11:35;;;;;;;20.77;10.88;;;;;;;7.86;66.51;102891.69;4975682;28;20283;-87
2022/04/28 06:14:01;;;;;;;24.33;10.52;;;;;;;7.99;66.03;102903.16;4973591;28;20402;-88
2022/04/28 06:16:26;;;;;;;19.50;9.82;;;;;;;7.97;66.06;102896.09;4991721;28;20058;-87
2022/04/28 06:18:51;;;;;;;18.17;10.70;;;;;;;7.94;65.82;102883.81;4979409;28;20034;-88
2022/04/28 06:21:17;;;;;;;20.80;10.18;;;;;;;8.09;66.33;102902.31;4976643;28;20030;-88
2022/04/28 06:23:42;;;;;;;24.25;10.80;;;;;;;8.21;65.31;102905.84;4994365;28;20039;-87
2022/04/28 06:26:07;;;;;;;19.67;9.88;;;;;;;8.25;65.30;102900.56;4975503;28;20044;-89
2022/04/28 06:28:33;;;;;;;29.55;10.77;;;;;;;8.32;65.25;102902.38;4990154;28;20038;-88
2022/04/28 06:30:58;;;;;;;20.20;10.45;;;;;;;8.46;65.25;102906.81;4988521;28;20038;-88
2022/04/28 06:33:23;;;;;;;20.30;9.27;;;;;;;8.50;64.23;102890.13;4973349;28;20030;-88
2022/04/28 06:35:49;;;;;;;17.90;9.95;;;;;;;8.64;63.92;102905.09;4995142;28;20041;-88
2022/04/28 06:38:14;;;;;;;20.52;8.95;;;;;;;8.80;63.76;102911.25;4982033;28;20027;-88
2022/04/28 06:40:39;;;;;;;19.77;9.25;;;;;;;8.99;63.71;102917.41;4974252;28;20037;-87
2022/04/28 06:43:05;;;;;;;17.40;9.82;;;;;;;9.16;63.05;102922.69;4967363;28;20398;-89
2022/04/28 06:45:30;;;;;;;19.52;9.90;;;;;;;9.26;64.15;102913.88;4985326;28;20023;-87
2022/04/28 06:47:56;;;;;;;23.17;10.98;;;;;;;9.41;63.78;102915.59;4992128;28;20042;-88
2022/04/28 06:50:21;;;;;;;21.15;9.95;;;;;;;9.56;62.41;102917.31;4994108;28;20037;-88
2022/04/28 06:52:46;;;;;;;18.10;8.95;;;;;;;9.55;62.88;102895.31;4974692;28;20440;-89
2022/04/28 06:55:12;;;;;;;17.15;9.98;;;;;;;9.91;62.35;102925.13;4974260;28;20084;-88
2022/04/28 06:57:38;;;;;;;22.05;10.80;;;;;;;9.96;60.70;102911.00;4971286;28;20034;-88
2022/04/28 07:00:08;;;;;;;20.08;8.55;;;;;;;10.18;61.25;102926.78;4974152;28;20034;-87
2022/04/28 07:02:34;;;;;;;21.45;9.90;;;;;;;10.34;60.50;102933.75;4974277;28;20101;-88
2022/04/28 07:05:00;;;;;;;22.58;10.05;;;;;;;10.35;59.99;102918.78;4975141;28;20061;-88
2022/04/28 07:07:25;;;;;;;18.17;9.23;;;;;;;10.54;59.35;102930.13;4973674;28;20981;-88
2022/04/28 07:09:51;;;;;;;20.05;9.25;;;;;;;10.72;60.01;102945.88;4975804;28;20049;-88
2022/04/28 07:12:16;;;;;;;18.17;9.30;;;;;;;10.77;59.78;102944.09;4972252;28;20400;-88
2022/04/28 07:14:43;;;;;;;17.33;8.60;;;;;;;10.86;59.72;102937.81;4991098;28;21072;-88
2022/04/28 07:17:10;;;;;;;17.65;10.27;;;;;;;11.08;59.67;102949.13;4995852;28;20030;-87
2022/04/28 07:19:35;;;;;;;14.68;8.85;;;;;;;11.21;59.09;102945.50;4972291;28;20041;-89
2022/04/28 07:22:04;;;;;;;19.40;9.32;;;;;;;11.35;57.59;102934.78;4988795;28;20045;-89
2022/04/28 07:24:30;;;;;;;19.90;7.93;;;;;;;11.56;56.61;102963.66;4972565;28;20416;-88
2022/04/28 07:26:55;;;;;;;18.90;8.82;;;;;;;11.69;56.57;102967.94;4975857;28;20513;-90
2022/04/28 07:29:21;;;;;;;17.75;8.90;;;;;;;11.88;55.72;102968.66;4969154;28;20029;-90
2022/04/28 07:31:46;;;;;;;27.95;9.02;;;;;;;11.97;54.91;102954.41;4992868;28;20322;-88
2022/04/28 07:34:11;;;;;;;21.75;8.63;;;;;;;12.12;54.83;102954.22;4975812;28;20026;-89
2022/04/28 07:36:37;;;;;;;16.00;8.10;;;;;;;12.31;53.71;102962.84;4974854;28;20108;-89
2022/04/28 07:39:02;;;;;;;13.23;7.85;;;;;;;12.47;53.26;102953.75;4970017;28;20030;-88
2022/04/28 07:41:28;;;;;;;17.48;7.88;;;;;;;12.92;52.82;102956.63;4992849;28;20026;-88
2022/04/28 07:43:54;;;;;;;18.75;8.10;;;;;;;13.36;52.33;102965.66;4990546;28;20040;-88
2022/04/28 07:46:19;;;;;;;17.15;8.02;;;;;;;13.73;50.78;102955.22;4990124;28;20030;-88
2022/04/28 07:48:45;;;;;;;14.50;7.72;;;;;;;14.21;49.34;102971.06;4986255;28;20038;-88
2022/04/28 07:51:10;;;;;;;16.52;7.63;;;;;;;14.37;47.55;102963.66;4969436;28;20513;-88
2022/04/28 07:53:35;;;;;;;11.75;7.18;;;;;;;14.69;47.72;102976.25;4982862;28;20087;-89
2022/04/28 07:56:18;;;;;;;13.05;7.10;;;;;;;14.85;46.07;102967.91;4969281;28;20364;-89
2022/04/28 07:58:44;;;;;;;17.35;7.72;;;;;;;15.32;46.46;102988.91;4969570;28;20694;-88
2022/04/28 08:01:11;;;;;;;12.18;7.40;;;;;;;15.62;45.00;102975.69;4967538;28;20034;-88
2022/04/28 08:03:37;;;;;;;16.63;7.97;;;;;;;15.87;43.46;102967.91;4968423;28;20118;-89
2022/04/28 08:06:03;;;;;;;15.77;7.18;;;;;;;16.11;42.77;102989.47;4986293;28;20030;-89
2022/04/28 08:08:28;;;;;;;15.32;7.10;;;;;;;16.21;42.71;102986.47;4969038;28;20041;-88
2022/04/28 08:10:53;;;;;;;14.70;7.20;;;;;;;16.38;43.13;102977.97;4963868;28;20054;-88
2022/04/28 08:13:19;;;;;;;10.77;7.15;;;;;;;16.58;41.54;102972.00;4963864;28;20058;-89
2022/04/28 08:15:45;;;;;;;13.02;6.90;;;;;;;17.01;40.63;103000.06;4986091;28;20467;-88
2022/04/28 08:18:10;;;;;;;13.15;7.35;;;;;;;16.99;41.04;103001.91;4968556;28;20693;-87
2022/04/28 08:20:38;;;;;;;14.38;6.80;;;;;;;17.28;40.87;102976.88;4969128;28;20018;-87
2022/04/28 08:23:04;;;;;;;15.40;6.72;;;;;;;17.63;39.71;102978.34;4966376;28;20144;-88
2022/04/28 08:25:29;;;;;;;16.10;7.40;;;;;;;17.90;39.96;102980.94;4969433;28;20081;-89
2022/04/28 08:27:55;;;;;;;14.10;7.03;;;;;;;18.17;38.10;103001.34;4982945;28;20065;-88
2022/04/28 08:30:20;;;;;;;14.32;6.88;;;;;;;18.51;38.35;102994.69;4987479;28;20030;-87
2022/04/28 08:32:45;;;;;;;12.85;7.65;;;;;;;18.63;38.49;102987.97;4970096;28;20577;-87
2022/04/28 08:35:11;;;;;;;16.83;7.45;;;;;;;18.79;36.59;103002.53;4970633;28;20042;-87
2022/04/28 08:37:39;;;;;;;12.00;6.97;;;;;;;18.93;36.53;103010.03;4975287;28;20026;-86
2022/04/28 08:40:05;;;;;;;13.40;7.45;;;;;;;19.31;36.41;103013.81;4970547;28;20556;-88
2022/04/28 08:42:32;;;;;;;12.82;6.47;;;;;;;19.55;35.21;103017.25;4969813;28;20034;-87
2022/04/28 08:44:59;;;;;;;14.18;6.78;;;;;;;19.90;35.14;103013.03;4966081;28;20383;-88
2022/04/28 08:47:25;;;;;;;15.35;7.60;;;;;;;20.16;34.67;103013.69;4974048;28;20033;-86
2022/04/28 08:49:51;;;;;;;14.13;7.28;;;;;;;20.51;33.57;103010.22;4968680;28;20035;-87
2022/04/28 08:52:18;;;;;;;19.85;7.60;;;;;;;20.62;33.91;102999.84;4962189;28;20023;-88
2022/04/28 08:54:44;;;;;;;17.45;7.38;;;;;;;21.15;32.43;102993.63;4969392;28;20352;-87
2022/04/28 08:57:12;;;;;;;14.60;7.88;;;;;;;21.09;31.15;102982.31;4992517;28;20109;-88
2022/04/28 08:59:37;;;;;;;14.88;7.22;;;;;;;21.54;32.27;103006.03;4988813;28;20192;-88
2022/04/28 09:02:03;;;;;;;16.77;7.82;;;;;;;21.78;31.78;102998.50;4972185;28;20121;-87
2022/04/28 09:04:29;;;;;;;19.17;7.63;;;;;;;22.36;31.13;103000.72;4993031;28;20023;-88
2022/04/28 09:06:55;;;;;;;16.67;7.50;;;;;;;22.67;30.64;103007.97;4990340;28;20076;-88
2022/04/28 09:09:21;;;;;;;13.73;6.93;;;;;;;22.81;31.06;103003.63;4991552;28;20030;-88
2022/04/28 09:11:47;;;;;;;16.58;7.68;;;;;;;22.82;29.51;103014.31;4969719;28;20560;-88
2022/04/28 09:14:20;;;;;;;12.23;7.07;;;;;;;22.88;30.27;103015.78;4989947;28;20084;-87
2022/04/28 09:16:49;;;;;;;14.68;7.97;;;;;;;23.33;30.23;102995.19;4994101;28;20052;-88
2022/04/28 09:19:19;;;;;;;14.90;7.20;;;;;;;23.71;28.68;103006.38;4989759;28;20374;-87
2022/04/28 09:21:46;;;;;;;13.07;7.32;;;;;;;23.97;28.78;103002.09;4974628;28;20486;-88
2022/04/28 09:24:13;;;;;;;18.13;7.85;;;;;;;24.28;28.83;103000.13;4993661;28;20330;-89
2022/04/28 09:26:39;;;;;;;11.40;6.57;;;;;;;24.68;29.12;102998.44;4970289;28;20121;-88
2022/04/28 09:29:06;;;;;;;13.32;6.78;;;;;;;25.06;27.48;102993.19;4976369;28;20025;-88
2022/04/28 09:31:35;;;;;;;10.75;6.65;;;;;;;25.04;27.39;103003.25;4997332;28;20053;-87
2022/04/28 09:34:12;;;;;;;10.80;7.28;;;;;;;24.14;27.65;102987.47;4992324;28;20034;-88
2022/04/28 09:36:39;;;;;;;13.40;6.75;;;;;;;24.31;27.77;102989.13;4993098;28;20080;-89
2022/04/28 09:39:07;;;;;;;11.60;6.93;;;;;;;24.58;27.16;102994.63;4995191;28;20030;-89
2022/04/28 09:44:20;;;;;;;12.77;6.57;;;;;;;24.19;27.01;102978.13;4997104;28;20184;-88
2022/04/28 09:46:47;;;;;;;12.20;6.25;;;;;;;24.19;27.49;102997.03;4974496;28;20859;-88
2022/04/28 09:49:17;;;;;;;10.25;6.28;;;;;;;24.35;28.40;102993.38;4989273;28;20506;-89
2022/04/28 09:51:43;;;;;;;13.02;6.40;;;;;;;24.07;27.25;102994.25;4988847;28;20057;-90
2022/04/28 09:54:11;;;;;;;11.30;6.13;;;;;;;23.86;27.28;102980.25;4974677;28;20128;-88
2022/04/28 09:56:39;;;;;;;11.35;6.50;;;;;;;23.58;26.56;102983.75;4988882;28;20053;-90
2022/04/28 09:59:09;;;;;;;13.00;6.38;;;;;;;23.33;28.46;102981.69;4972279;28;20042;-89
2022/04/28 10:01:37;;;;;;;11.48;6.00;;;;;;;23.28;28.81;102981.97;4974536;28;20030;-90
2022/04/28 10:04:03;;;;;;;9.60;6.53;;;;;;;22.43;28.00;102974.31;4977463;28;20027;-89
2022/04/28 10:06:31;;;;;;;13.38;6.60;;;;;;;21.87;30.99;102965.69;4977258;28;20508;-90
2022/04/28 10:08:59;;;;;;;12.98;7.13;;;;;;;22.35;29.21;102979.25;4995818;28;20607;-90
2022/04/28 10:11:24;;;;;;;12.10;5.88;;;;;;;22.65;30.50;102968.56;4972509;28;20030;-90
2022/04/28 10:13:51;;;;;;;13.38;7.00;;;;;;;23.08;28.58;102953.47;4992573;28;20109;-90
2022/04/28 10:16:19;;;;;;;12.25;6.70;;;;;;;23.15;28.29;102953.97;4992203;28;20034;-89
2022/04/28 10:18:57;;;;;;;10.65;6.65;;;;;;;23.27;29.17;102968.53;4993653;28;20447;-89
2022/04/28 10:21:28;;;;;;;14.57;6.60;;;;;;;23.33;27.60;102970.91;4988219;28;20466;-89
2022/04/28 10:32:58;;;;;;;13.60;7.00;;;;;;;23.75;28.40;102975.53;4988569;28;20061;-91
2022/04/28 10:35:41;;;;;;;11.75;6.57;;;;;;;24.02;28.78;102964.81;4972733;28;20092;-91
2022/04/28 10:38:11;;;;;;;9.32;6.78;;;;;;;24.11;27.15;102960.69;4971591;28;20038;-92
2022/04/28 10:40:46;;;;;;;13.65;7.40;;;;;;;23.75;25.92;102953.06;4976882;28;20100;-91
2022/04/28 10:43:30;;;;;;;13.05;7.40;;;;;;;24.05;28.43;102970.03;4975055;28;20026;-90
2022/04/28 10:45:57;;;;;;;10.38;6.60;;;;;;;24.22;26.45;102957.28;4985187;28;20080;-90
2022/04/28 10:48:47;;;;;;;12.13;6.80;;;;;;;24.36;28.44;102955.44;4990060;28;20062;-90
2022/04/28 10:51:18;;;;;;;11.25;6.22;;;;;;;24.50;26.68;102959.94;4983071;28;20303;-90
2022/04/28 10:53:58;;;;;;;12.55;7.38;;;;;;;24.52;27.06;102951.72;4992967;28;20117;-90
2022/04/28 10:56:39;;;;;;;10.85;8.18;;;;;;;23.84;26.15;102958.75;4988250;28;20499;-90
2022/04/28 10:59:36;;;;;;;8.82;7.50;;;;;;;24.36;28.21;102960.84;4968130;28;20034;-91
2022/04/28 11:02:07;;;;;;;13.00;6.93;;;;;;;24.62;26.90;102944.72;4982568;28;20389;-91
2022/04/28 11:04:33;;;;;;;15.75;8.00;;;;;;;24.62;25.90;102937.50;4991972;28;20543;-90
2022/04/28 11:06:58;;;;;;;11.93;7.93;;;;;;;24.84;26.84;102942.34;4977713;28;20021;-92
2022/04/28 11:09:35;;;;;;;13.95;8.15;;;;;;;24.99;26.62;102950.38;4971848;28;20565;-91
2022/04/28 11:12:10;;;;;;;12.63;8.00;;;;;;;25.06;26.62;102933.63;4974521;28;20049;-90
2022/04/28 11:14:59;;;;;;;12.88;7.72;;;;;;;25.31;26.16;102931.97;4972196;28;20025;-91
2022/04/28 11:17:25;;;;;;;11.07;7.53;;;;;;;25.43;24.70;102942.81;4975154;28;20033;-90
2022/04/28 11:19:51;;;;;;;13.48;7.88;;;;;;;24.99;25.13;102924.19;4995630;28;20040;-90
2022/04/28 11:22:16;;;;;;;12.25;8.27;;;;;;;24.83;24.56;102940.59;4975021;28;20022;-91
2022/04/28 11:24:46;;;;;;;12.45;7.97;;;;;;;24.76;26.25;102925.78;4989574;28;20057;-91
2022/04/28 11:27:18;;;;;;;12.15;8.52;;;;;;;24.78;24.63;102926.53;4987766;28;20080;-89
2022/04/28 11:29:44;;;;;;;11.40;8.15;;;;;;;24.72;25.09;102926.94;4988600;28;20030;-90
2022/04/28 11:32:11;;;;;;;10.48;7.57;;;;;;;24.66;26.57;102917.38;4975397;28;20038;-89
2022/04/28 11:34:37;;;;;;;14.93;9.27;;;;;;;24.83;25.02;102916.25;4991775;28;20037;-90
2022/04/28 11:37:17;;;;;;;15.35;9.32;;;;;;;24.64;26.66;102916.63;4989374;28;20051;-90
2022/04/28 11:39:46;;;;;;;12.05;8.68;;;;;;;24.66;26.11;102919.22;4972015;28;20026;-90
2022/04/28 11:42:16;;;;;;;12.63;8.15;;;;;;;24.86;25.40;102932.28;4987376;28;20042;-89
2022/04/28 11:44:46;;;;;;;12.23;8.30;;;;;;;25.04;26.06;102930.19;4969709;28;20022;-90
2022/04/28 11:47:12;;;;;;;12.35;8.82;;;;;;;25.00;24.38;102920.53;4969610;28;20062;-89